Observation data for Haskell on 05/26/2019      Previous  Date  Next       Current Mesonet Observations  Soil Data  Daily Summary Page  Observations in Plain Language
KHA1 260500Z 15010KT 25/20 A2993 RMK A01 T02500195  RH  076%=      5-min Rain = 0
KHA1 260505Z 15010G15KT 25/20 A2992 RMK A01 T02490195  RH  076%=      5-min Rain = 0
KHA1 260510Z 15010KT 25/19 A2992 RMK A01 T02490194  RH  076%=      5-min Rain = 0
KHA1 260515Z 15009G15KT 25/19 A2992 RMK A01 T02490194  RH  076%=      5-min Rain = 0
KHA1 260520Z 14008KT 25/19 A2993 RMK A01 T02480194  RH  076%=      5-min Rain = 0
KHA1 260525Z 15008KT 25/19 A2993 RMK A01 T02480194  RH  076%=      5-min Rain = 0
KHA1 260530Z 15008G15KT 25/19 A2993 RMK A01 T02470193  RH  076%=      5-min Rain = 0
KHA1 260535Z 14008G13KT 25/19 A2993 RMK A01 T02480193  RH  076%=      5-min Rain = 0
KHA1 260540Z 14008KT 25/19 A2993 RMK A01 T02470193  RH  076%=      5-min Rain = 0
KHA1 260545Z 15008G14KT 25/19 A2993 RMK A01 T02460193  RH  076%=      5-min Rain = 0
KHA1 260550Z 15009G14KT 25/19 A2993 RMK A01 T02460193  RH  076%=      5-min Rain = 0
KHA1 260555Z 15009KT 25/19 A2993 RMK A01 T02460192  RH  076%=      5-min Rain = 0
KHA1 260600Z 15009G14KT 25/19 A2994 RMK A01 T02460192  RH  076%=      5-min Rain = 0
KHA1 260605Z 15009KT 25/19 A2994 RMK A01 T02460192  RH  076%=      5-min Rain = 0
KHA1 260610Z 14008G14KT 25/19 A2994 RMK A01 T02460192  RH  076%=      5-min Rain = 0
KHA1 260615Z 15009KT 25/19 A2994 RMK A01 T02460191  RH  076%=      5-min Rain = 0
KHA1 260620Z 15009G14KT 25/19 A2994 RMK A01 T02450191  RH  076%=      5-min Rain = 0
KHA1 260625Z 15009KT 25/19 A2994 RMK A01 T02450191  RH  076%=      5-min Rain = 0
KHA1 260630Z 15008KT 24/19 A2994 RMK A01 T02440191  RH  076%=      5-min Rain = 0
KHA1 260635Z 15008KT 24/19 A2994 RMK A01 T02430191  RH  077%=      5-min Rain = 0
KHA1 260640Z 15008KT 24/19 A2995 RMK A01 T02430191  RH  077%=      5-min Rain = 0
KHA1 260645Z 15007KT 24/19 A2995 RMK A01 T02430190  RH  077%=      5-min Rain = 0
KHA1 260650Z 14007KT 24/19 A2995 RMK A01 T02410190  RH  077%=      5-min Rain = 0
KHA1 260655Z 14008KT 24/19 A2995 RMK A01 T02410190  RH  078%=      5-min Rain = 0
KHA1 260700Z 14008KT 24/19 A2995 RMK A01 T02400190  RH  078%=      5-min Rain = 0
KHA1 260705Z 14009KT 24/19 A2995 RMK A01 T02400190  RH  077%=      5-min Rain = 0
KHA1 260710Z 15008KT 24/19 A2995 RMK A01 T02400190  RH  077%=      5-min Rain = 0
KHA1 260715Z 15008KT 24/19 A2995 RMK A01 T02390189  RH  078%=      5-min Rain = 0
KHA1 260720Z 14007KT 24/19 A2995 RMK A01 T02380189  RH  079%=      5-min Rain = 0
KHA1 260725Z 14007KT 24/19 A2995 RMK A01 T02370189  RH  079%=      5-min Rain = 0
KHA1 260730Z 14006KT 24/19 A2995 RMK A01 T02360189  RH  079%=      5-min Rain = 0
KHA1 260735Z 14006KT 24/19 A2995 RMK A01 T02350189  RH  080%=      5-min Rain = 0
KHA1 260740Z 14007KT 23/19 A2995 RMK A01 T02340189  RH  080%=      5-min Rain = 0
KHA1 260745Z 14008KT 23/19 A2995 RMK A01 T02330188  RH  080%=      5-min Rain = 0
KHA1 260750Z 14008KT 23/19 A2995 RMK A01 T02330188  RH  080%=      5-min Rain = 0
KHA1 260755Z 14008KT 23/19 A2995 RMK A01 T02330188  RH  080%=      5-min Rain = 0
KHA1 260800Z 14008KT 23/19 A2995 RMK A01 T02320188  RH  081%=      5-min Rain = 0
KHA1 260805Z 14007KT 23/19 A2995 RMK A01 T02310188  RH  081%=      5-min Rain = 0
KHA1 260810Z 13008KT 23/19 A2995 RMK A01 T02300188  RH  081%=      5-min Rain = 0
KHA1 260815Z 13007G13KT 23/19 A2995 RMK A01 T02300188  RH  081%=      5-min Rain = 0
KHA1 260820Z 14007G12KT 23/19 A2995 RMK A01 T02290188  RH  082%=      5-min Rain = 0
KHA1 260825Z 14007KT 23/19 A2995 RMK A01 T02290188  RH  082%=      5-min Rain = 0
KHA1 260830Z 14007KT 23/19 A2995 RMK A01 T02280188  RH  082%=      5-min Rain = 0
KHA1 260835Z 15007KT 23/19 A2994 RMK A01 T02260188  RH  083%=      5-min Rain = 0
KHA1 260840Z 14007KT 23/19 A2994 RMK A01 T02250187  RH  084%=      5-min Rain = 0
KHA1 260845Z 14008KT 23/19 A2994 RMK A01 T02250188  RH  084%=      5-min Rain = 0
KHA1 260850Z 14008KT 22/19 A2994 RMK A01 T02240187  RH  084%=      5-min Rain = 0
KHA1 260855Z 14007KT 22/19 A2994 RMK A01 T02230188  RH  085%=      5-min Rain = 0
KHA1 260900Z 14008KT 22/19 A2994 RMK A01 T02230188  RH  085%=      5-min Rain = 0
KHA1 260905Z 14008KT 22/19 A2994 RMK A01 T02220188  RH  085%=      5-min Rain = 0
KHA1 260910Z 14008KT 22/19 A2994 RMK A01 T02210187  RH  086%=      5-min Rain = 0
KHA1 260915Z 14008KT 22/19 A2994 RMK A01 T02210187  RH  086%=      5-min Rain = 0
KHA1 260920Z 14008KT 22/19 A2994 RMK A01 T02200187  RH  086%=      5-min Rain = 0
KHA1 260925Z 14008KT 22/19 A2995 RMK A01 T02210187  RH  086%=      5-min Rain = 0
KHA1 260930Z 13007KT 22/19 A2995 RMK A01 T02200187  RH  086%=      5-min Rain = 0
KHA1 260935Z 13006KT 22/19 A2995 RMK A01 T02180187  RH  087%=      5-min Rain = 0
KHA1 260940Z 14007KT 22/19 A2995 RMK A01 T02170187  RH  088%=      5-min Rain = 0
KHA1 260945Z 15006KT 22/19 A2995 RMK A01 T02160186  RH  088%=      5-min Rain = 0
KHA1 260950Z 15007KT 22/19 A2995 RMK A01 T02160186  RH  088%=      5-min Rain = 0
KHA1 260955Z 14007KT 22/19 A2995 RMK A01 T02150186  RH  088%=      5-min Rain = 0
KHA1 261000Z 14007KT 21/19 A2995 RMK A01 T02140186  RH  089%=      5-min Rain = 0
KHA1 261005Z 14007KT 21/19 A2995 RMK A01 T02130186  RH  089%=      5-min Rain = 0
KHA1 261010Z 14007KT 21/19 A2995 RMK A01 T02120185  RH  089%=      5-min Rain = 0
KHA1 261015Z 14007KT 21/19 A2995 RMK A01 T02120185  RH  089%=      5-min Rain = 0
KHA1 261020Z 14007KT 21/19 A2995 RMK A01 T02120185  RH  089%=      5-min Rain = 0
KHA1 261025Z 14008KT 21/19 A2995 RMK A01 T02110185  RH  089%=      5-min Rain = 0
KHA1 261030Z 14008KT 21/18 A2995 RMK A01 T02110184  RH  089%=      5-min Rain = 0
KHA1 261035Z 14008KT 21/18 A2995 RMK A01 T02110184  RH  089%=      5-min Rain = 0
KHA1 261040Z 14007KT 21/18 A2995 RMK A01 T02110184  RH  089%=      5-min Rain = 0
KHA1 261045Z 14007KT 21/18 A2995 RMK A01 T02100184  RH  090%=      5-min Rain = 0
KHA1 261050Z 14008G13KT 21/18 A2995 RMK A01 T02090184  RH  090%=      5-min Rain = 0
KHA1 261055Z 14009KT 21/18 A2995 RMK A01 T02090184  RH  090%=      5-min Rain = 0
KHA1 261100Z 14008G13KT 21/18 A2996 RMK A01 T02090183  RH  090%=      5-min Rain = 0
KHA1 261105Z 14008G13KT 21/18 A2996 RMK A01 T02080183  RH  090%=      5-min Rain = 0
KHA1 261110Z 14008KT 21/18 A2996 RMK A01 T02070182  RH  090%=      5-min Rain = 0
KHA1 261115Z 15008G13KT 21/18 A2996 RMK A01 T02070182  RH  090%=      5-min Rain = 0
KHA1 261120Z 15008G15KT 21/18 A2996 RMK A01 T02070182  RH  090%=      5-min Rain = 0
KHA1 261125Z 15007KT 21/18 A2996 RMK A01 T02070181  RH  090%=      5-min Rain = 0
KHA1 261130Z 14007G12KT 21/18 A2997 RMK A01 T02060181  RH  090%=      5-min Rain = 0
KHA1 261135Z 15008KT 21/18 A2997 RMK A01 T02060181  RH  091%=      5-min Rain = 0
KHA1 261140Z 15009KT 21/18 A2997 RMK A01 T02060181  RH  090%=      5-min Rain = 0
KHA1 261145Z 15008G13KT 21/18 A2997 RMK A01 T02060181  RH  090%=      5-min Rain = 0
KHA1 261150Z 15009G15KT 21/18 A2997 RMK A01 T02070180  RH  089%=      5-min Rain = 0
KHA1 261155Z 15008KT 21/18 A2997 RMK A01 T02070179  RH  089%=      5-min Rain = 0
KHA1 261200Z 15010G16KT 21/18 A2997 RMK A01 T02080179  RH  088%=      5-min Rain = 0
KHA1 261205Z 15010KT 21/18 A2998 RMK A01 T02090178  RH  087%=      5-min Rain = 0
KHA1 261210Z 16009G15KT 21/18 A2998 RMK A01 T02090178  RH  087%=      5-min Rain = 0
KHA1 261215Z 16010G15KT 21/18 A2999 RMK A01 T02090178  RH  087%=      5-min Rain = 0
KHA1 261220Z 16010G15KT 21/18 A2999 RMK A01 T02100178  RH  086%=      5-min Rain = 0
KHA1 261225Z 16010G16KT 21/18 A2999 RMK A01 T02110177  RH  086%=      5-min Rain = 0
KHA1 261230Z 15009G15KT 21/18 A2999 RMK A01 T02120178  RH  085%=      5-min Rain = 0
KHA1 261235Z 16010G15KT 21/18 A2999 RMK A01 T02130177  RH  085%=      5-min Rain = 0
KHA1 261240Z 16011G17KT 21/18 A30 RMK A01 T02140178  RH  084%=      5-min Rain = 0
KHA1 261245Z 16010KT 22/18 A30 RMK A01 T02150178  RH  084%=      5-min Rain = 0
KHA1 261250Z 16013G18KT 22/18 A30 RMK A01 T02160178  RH  083%=      5-min Rain = 0
KHA1 261255Z 16012G19KT 22/18 A30 RMK A01 T02170178  RH  083%=      5-min Rain = 0
KHA1 261300Z 16011G17KT 22/18 A30 RMK A01 T02170178  RH  083%=      5-min Rain = 0
KHA1 261305Z 16011KT 22/18 A30 RMK A01 T02180179  RH  083%=      5-min Rain = 0
KHA1 261310Z 16011G19KT 22/18 A3001 RMK A01 T02200179  RH  082%=      5-min Rain = 0
KHA1 261315Z 16011G16KT 22/18 A3001 RMK A01 T02220180  RH  081%=      5-min Rain = 0
KHA1 261320Z 16012G20KT 22/18 A3001 RMK A01 T02220178  RH  081%=      5-min Rain = 0
KHA1 261325Z 16013G22KT 22/18 A3001 RMK A01 T02210178  RH  081%=      5-min Rain = 0
KHA1 261330Z 16012G18KT 22/18 A3001 RMK A01 T02230179  RH  080%=      5-min Rain = 0
KHA1 261335Z 16012G17KT 23/18 A3002 RMK A01 T02250179  RH  079%=      5-min Rain = 0
KHA1 261340Z 17013G19KT 23/18 A3002 RMK A01 T02270179  RH  079%=      5-min Rain = 0
KHA1 261345Z 16014G21KT 23/18 A3002 RMK A01 T02280179  RH  078%=      5-min Rain = 0
KHA1 261350Z 17015G21KT 23/18 A3002 RMK A01 T02280179  RH  078%=      5-min Rain = 0
KHA1 261355Z 17015G21KT 23/18 A3002 RMK A01 T02290179  RH  077%=      5-min Rain = 0
KHA1 261400Z 17015G24KT 23/18 A3002 RMK A01 T02310179  RH  076%=      5-min Rain = 0
KHA1 261405Z 17015G21KT 23/18 A3002 RMK A01 T02310177  RH  076%=      5-min Rain = 0
KHA1 261410Z 17015G21KT 23/18 A3002 RMK A01 T02320178  RH  076%=      5-min Rain = 0
KHA1 261415Z 18015KT 23/18 A3002 RMK A01 T02330178  RH  075%=      5-min Rain = 0
KHA1 261420Z 17015G23KT 23/18 A3002 RMK A01 T02340178  RH  074%=      5-min Rain = 0
KHA1 261425Z 18017G22KT 23/18 A3002 RMK A01 T02340176  RH  074%=      5-min Rain = 0
KHA1 261430Z 18017G23KT 23/18 A3003 RMK A01 T02340177  RH  074%=      5-min Rain = 0
KHA1 261435Z 18015G21KT 24/18 A3003 RMK A01 T02370178  RH  073%=      5-min Rain = 0
KHA1 261440Z 17014G22KT 24/18 A3003 RMK A01 T02390178  RH  072%=      5-min Rain = 0
KHA1 261445Z 17014G21KT 24/18 A3003 RMK A01 T02400178  RH  072%=      5-min Rain = 0
KHA1 261450Z 17016KT 24/18 A3003 RMK A01 T02380175  RH  072%=      5-min Rain = 0
KHA1 261455Z 17014G21KT 24/18 A3002 RMK A01 T02380176  RH  072%=      5-min Rain = 0
KHA1 261500Z 17015G22KT 24/18 A3002 RMK A01 T02400176  RH  071%=      5-min Rain = 0
KHA1 261505Z 18014G19KT 24/18 A3002 RMK A01 T02430177  RH  070%=      5-min Rain = 0
KHA1 261510Z 18015G21KT 24/18 A3002 RMK A01 T02430177  RH  070%=      5-min Rain = 0
KHA1 261515Z 18015G21KT 25/18 A3002 RMK A01 T02480178  RH  069%=      5-min Rain = 0
KHA1 261520Z 16017G24KT 25/18 A3001 RMK A01 T02470177  RH  068%=      5-min Rain = 0
KHA1 261525Z 17015G21KT 25/18 A3001 RMK A01 T02460176  RH  069%=      5-min Rain = 0
KHA1 261530Z 16015G24KT 25/18 A3001 RMK A01 T02450177  RH  069%=      5-min Rain = 0
KHA1 261535Z 17013G19KT 25/18 A3001 RMK A01 T02500180  RH  068%=      5-min Rain = 0
KHA1 261540Z 17014G23KT 25/18 A3001 RMK A01 T02490178  RH  068%=      5-min Rain = 0
KHA1 261545Z 17016G21KT 25/18 A3001 RMK A01 T02470176  RH  068%=      5-min Rain = 0
KHA1 261550Z 17013G19KT 25/18 A3001 RMK A01 T02480178  RH  069%=      5-min Rain = 0
KHA1 261555Z 17015G20KT 25/18 A3001 RMK A01 T02490178  RH  068%=      5-min Rain = 0
KHA1 261600Z 17015G25KT 25/18 A3001 RMK A01 T02490178  RH  068%=      5-min Rain = 0
KHA1 261605Z 17016G23KT 25/18 A3001 RMK A01 T02510177  RH  067%=      5-min Rain = 0
KHA1 261610Z 17012G21KT 26/18 A3001 RMK A01 T02550179  RH  066%=      5-min Rain = 0
KHA1 261615Z 17014G20KT 26/18 A3001 RMK A01 T02550178  RH  066%=      5-min Rain = 0
KHA1 261620Z 18015G23KT 25/18 A3001 RMK A01 T02510177  RH  067%=      5-min Rain = 0
KHA1 261625Z 18012G18KT 26/18 A3001 RMK A01 T02560180  RH  066%=      5-min Rain = 0
KHA1 261630Z 17015G21KT 26/18 A30 RMK A01 T02560178  RH  065%=      5-min Rain = 0
KHA1 261635Z 17014G19KT 26/18 A3001 RMK A01 T02570179  RH  065%=      5-min Rain = 0
KHA1 261640Z 18012G18KT 26/18 A3001 RMK A01 T02590180  RH  065%=      5-min Rain = 0
KHA1 261645Z 17012G18KT 26/18 A3001 RMK A01 T02600179  RH  065%=      5-min Rain = 0
KHA1 261650Z 17012G18KT 26/18 A3001 RMK A01 T02610181  RH  065%=      5-min Rain = 0
KHA1 261655Z 17015G24KT 26/18 A30 RMK A01 T02620178  RH  063%=      5-min Rain = 0
KHA1 261700Z 17015G21KT 26/18 A30 RMK A01 T02610178  RH  063%=      5-min Rain = 0
KHA1 261705Z 17013G21KT 26/18 A30 RMK A01 T02640180  RH  063%=      5-min Rain = 0
KHA1 261710Z 17014G21KT 26/18 A2999 RMK A01 T02640179  RH  063%=      5-min Rain = 0
KHA1 261715Z 17016G24KT 27/18 A2999 RMK A01 T02660179  RH  062%=      5-min Rain = 0
KHA1 261720Z 17015G22KT 27/18 A2999 RMK A01 T02700181  RH  061%=      5-min Rain = 0
KHA1 261725Z 17014G21KT 27/18 A2999 RMK A01 T02700181  RH  061%=      5-min Rain = 0
KHA1 261730Z 16015G23KT 28/18 A2999 RMK A01 T02770183  RH  060%=      5-min Rain = 0
KHA1 261735Z 17017G24KT 27/18 A2999 RMK A01 T02730178  RH  059%=      5-min Rain = 0
KHA1 261740Z 17014G21KT 28/18 A2999 RMK A01 T02760181  RH  059%=      5-min Rain = 0
KHA1 261745Z 16016G22KT 27/18 A2999 RMK A01 T02740180  RH  060%=      5-min Rain = 0
KHA1 261750Z 18017G25KT 28/18 A2999 RMK A01 T02760180  RH  059%=      5-min Rain = 0
KHA1 261755Z 17014G20KT 28/18 A2999 RMK A01 T02770182  RH  059%=      5-min Rain = 0
KHA1 261800Z 17014G20KT 28/18 A2999 RMK A01 T02820183  RH  058%=      5-min Rain = 0
KHA1 261805Z 16013G21KT 28/18 A2999 RMK A01 T02820183  RH  058%=      5-min Rain = 0
KHA1 261810Z 16012G17KT 28/19 A2999 RMK A01 T02810185  RH  059%=      5-min Rain = 0
KHA1 261815Z 16015G22KT 28/18 A2998 RMK A01 T02800183  RH  059%=      5-min Rain = 0
KHA1 261820Z 17016G24KT 28/18 A2998 RMK A01 T02790183  RH  059%=      5-min Rain = 0
KHA1 261825Z 16014G20KT 28/19 A2998 RMK A01 T02820187  RH  059%=      5-min Rain = 0
KHA1 261830Z 17015G23KT 28/19 A2998 RMK A01 T02810186  RH  059%=      5-min Rain = 0
KHA1 261835Z 16015G22KT 28/19 A2998 RMK A01 T02820188  RH  060%=      5-min Rain = 0
KHA1 261840Z 16014G23KT 28/19 A2998 RMK A01 T02800186  RH  060%=      5-min Rain = 0
KHA1 261845Z 16014G19KT 28/19 A2998 RMK A01 T02790187  RH  060%=      5-min Rain = 0
KHA1 261850Z 16013G22KT 29/19 A2998 RMK A01 T02850190  RH  060%=      5-min Rain = 0
KHA1 261855Z 17014G26KT 29/19 A2998 RMK A01 T02860189  RH  059%=      5-min Rain = 0
KHA1 261900Z 17014G22KT 28/19 A2998 RMK A01 T02840189  RH  060%=      5-min Rain = 0
KHA1 261905Z 16013G18KT 28/19 A2998 RMK A01 T02790189  RH  061%=      5-min Rain = 0
KHA1 261910Z 17014G20KT 28/19 A2998 RMK A01 T02810189  RH  061%=      5-min Rain = 0
KHA1 261915Z 17016G26KT 28/19 A2998 RMK A01 T02780188  RH  061%=      5-min Rain = 0
KHA1 261920Z 17015G24KT 28/19 A2998 RMK A01 T02780188  RH  062%=      5-min Rain = 0
KHA1 261925Z 17015G21KT 28/19 A2998 RMK A01 T02780188  RH  061%=      5-min Rain = 0
KHA1 261930Z 16014G21KT 28/19 A2997 RMK A01 T02780189  RH  062%=      5-min Rain = 0
KHA1 261935Z 16015G23KT 28/19 A2997 RMK A01 T02750187  RH  062%=      5-min Rain = 0
KHA1 261940Z 17015G22KT 28/19 A2998 RMK A01 T02750187  RH  062%=      5-min Rain = 0
KHA1 261945Z 17015G23KT 28/19 A2997 RMK A01 T02770187  RH  061%=      5-min Rain = 0
KHA1 261950Z 17014G21KT 28/19 A2997 RMK A01 T02780188  RH  061%=      5-min Rain = 0
KHA1 261955Z 17015G20KT 28/19 A2997 RMK A01 T02790188  RH  061%=      5-min Rain = 0
KHA1 262000Z 17015G22KT 28/19 A2997 RMK A01 T02770188  RH  062%=      5-min Rain = 0
KHA1 262005Z 16013G22KT 28/19 A2997 RMK A01 T02750188  RH  063%=      5-min Rain = 0
KHA1 262010Z 17016G24KT 27/19 A2997 RMK A01 T02740186  RH  062%=      5-min Rain = 0
KHA1 262015Z 17014G21KT 27/19 A2997 RMK A01 T02730187  RH  062%=      5-min Rain = 0
KHA1 262020Z 17013G20KT 28/19 A2998 RMK A01 T02750189  RH  063%=      5-min Rain = 0
KHA1 262025Z 17015G20KT 27/19 A2997 RMK A01 T02740188  RH  063%=      5-min Rain = 0
KHA1 262030Z 17014G20KT 27/19 A2998 RMK A01 T02730188  RH  063%=      5-min Rain = 0
KHA1 262035Z 17013G20KT 27/19 A2997 RMK A01 T02720188  RH  063%=      5-min Rain = 0
KHA1 262040Z 16012G19KT 27/19 A2997 RMK A01 T02740190  RH  064%=      5-min Rain = 0
KHA1 262045Z 16014G21KT 27/19 A2997 RMK A01 T02740188  RH  063%=      5-min Rain = 0
KHA1 262050Z 16013G20KT 27/19 A2997 RMK A01 T02720188  RH  063%=      5-min Rain = 0
KHA1 262055Z 17014G20KT 27/19 A2997 RMK A01 T02720188  RH  063%=      5-min Rain = 0
KHA1 262100Z 17013G20KT 27/19 A2997 RMK A01 T02740189  RH  063%=      5-min Rain = 0
KHA1 262105Z 17015G22KT 28/19 A2997 RMK A01 T02770188  RH  062%=      5-min Rain = 0
KHA1 262110Z 18014G20KT 28/19 A2997 RMK A01 T02760188  RH  062%=      5-min Rain = 0
KHA1 262115Z 18016G21KT 28/19 A2997 RMK A01 T02750186  RH  062%=      5-min Rain = 0
KHA1 262120Z 18012G18KT 28/19 A2997 RMK A01 T02750188  RH  062%=      5-min Rain = 0
KHA1 262125Z 18011G17KT 28/19 A2996 RMK A01 T02770189  RH  062%=      5-min Rain = 0
KHA1 262130Z 17011G18KT 28/19 A2996 RMK A01 T02790189  RH  061%=      5-min Rain = 0
KHA1 262135Z 18011G17KT 28/19 A2995 RMK A01 T02830192  RH  061%=      5-min Rain = 0
KHA1 262140Z 18012G17KT 28/19 A2995 RMK A01 T02820189  RH  060%=      5-min Rain = 0
KHA1 262145Z 17013G20KT 28/19 A2995 RMK A01 T02800188  RH  061%=      5-min Rain = 0
KHA1 262150Z 16012G18KT 28/19 A2995 RMK A01 T02790189  RH  061%=      5-min Rain = 0
KHA1 262155Z 17010G15KT 28/19 A2994 RMK A01 T02810191  RH  062%=      5-min Rain = 0
KHA1 262200Z 16008G13KT 28/19 A2994 RMK A01 T02820192  RH  062%=      5-min Rain = 0
KHA1 262205Z 17012G18KT 28/19 A2993 RMK A01 T02830186  RH  059%=      5-min Rain = 0
KHA1 262210Z 15009G15KT 28/19 A2993 RMK A01 T02830187  RH  059%=      5-min Rain = 0
KHA1 262215Z 16011G17KT 28/19 A2992 RMK A01 T02830185  RH  059%=      5-min Rain = 0
KHA1 262220Z 16009G14KT 28/19 A2992 RMK A01 T02830186  RH  059%=      5-min Rain = 0
KHA1 262225Z 16009G15KT 28/19 A2992 RMK A01 T02840186  RH  059%=      5-min Rain = 0
KHA1 262230Z 17010G15KT 28/19 A2992 RMK A01 T02840185  RH  058%=      5-min Rain = 0
KHA1 262235Z 16012G18KT 28/18 A2992 RMK A01 T02830183  RH  058%=      5-min Rain = 0
KHA1 262240Z 16010G16KT 28/18 A2992 RMK A01 T02820182  RH  057%=      5-min Rain = 0
KHA1 262245Z 16011G17KT 28/18 A2992 RMK A01 T02820183  RH  058%=      5-min Rain = 0
KHA1 262250Z 17011G17KT 28/18 A2992 RMK A01 T02830182  RH  057%=      5-min Rain = 0
KHA1 262255Z 17012G18KT 28/18 A2992 RMK A01 T02840181  RH  056%=      5-min Rain = 0
KHA1 262300Z 17012G21KT 29/18 A2992 RMK A01 T02850181  RH  056%=      5-min Rain = 0
KHA1 262305Z 16012G19KT 28/18 A2992 RMK A01 T02830180  RH  056%=      5-min Rain = 0
KHA1 262310Z 16012G18KT 28/18 A2992 RMK A01 T02820180  RH  057%=      5-min Rain = 0
KHA1 262315Z 16013G21KT 28/18 A2991 RMK A01 T02820178  RH  056%=      5-min Rain = 0
KHA1 262320Z 16009KT 28/18 A2991 RMK A01 T02820181  RH  057%=      5-min Rain = 0
KHA1 262325Z 16010G16KT 28/18 A2991 RMK A01 T02810183  RH  059%=      5-min Rain = 0
KHA1 262330Z 16011G17KT 28/18 A299 RMK A01 T02810182  RH  058%=      5-min Rain = 0
KHA1 262335Z 16010G16KT 28/18 A299 RMK A01 T02820181  RH  057%=      5-min Rain = 0
KHA1 262340Z 16009G15KT 28/18 A299 RMK A01 T02810181  RH  057%=      5-min Rain = 0
KHA1 262345Z 16009KT 28/18 A299 RMK A01 T02800183  RH  058%=      5-min Rain = 0
KHA1 262350Z 16010G15KT 28/18 A299 RMK A01 T02800184  RH  059%=      5-min Rain = 0
KHA1 262355Z 15010G15KT 28/18 A2989 RMK A01 T02790183  RH  059%=      5-min Rain = 0
KHA1 270000Z 16009G15KT 28/18 A299 RMK A01 T02780183  RH  059%=      5-min Rain = 0
KHA1 270005Z 15009G14KT 28/18 A2989 RMK A01 T02780183  RH  059%=      5-min Rain = 0
KHA1 270010Z 15010G17KT 28/18 A2988 RMK A01 T02770181  RH  059%=      5-min Rain = 0
KHA1 270015Z 15011G19KT 28/18 A2988 RMK A01 T02770181  RH  059%=      5-min Rain = 0
KHA1 270020Z 15011G18KT 28/18 A2988 RMK A01 T02770181  RH  059%=      5-min Rain = 0
KHA1 270025Z 15011G17KT 28/18 A2988 RMK A01 T02770181  RH  059%=      5-min Rain = 0
KHA1 270030Z 14010KT 28/18 A2988 RMK A01 T02750183  RH  060%=      5-min Rain = 0
KHA1 270035Z 14010KT 27/18 A2987 RMK A01 T02740184  RH  061%=      5-min Rain = 0
KHA1 270040Z 14011G19KT 27/19 A2987 RMK A01 T02740185  RH  062%=      5-min Rain = 0
KHA1 270045Z 15010G15KT 27/19 A2987 RMK A01 T02730185  RH  062%=      5-min Rain = 0
KHA1 270050Z 15010G15KT 27/19 A2987 RMK A01 T02720185  RH  062%=      5-min Rain = 0
KHA1 270055Z 15010G16KT 27/19 A2987 RMK A01 T02710186  RH  063%=      5-min Rain = 0
KHA1 270100Z 14008G13KT 27/19 A2987 RMK A01 T02710186  RH  063%=      5-min Rain = 0
KHA1 270105Z 14009KT 27/19 A2987 RMK A01 T02690186  RH  064%=      5-min Rain = 0
KHA1 270110Z 15008KT 27/19 A2987 RMK A01 T02680186  RH  064%=      5-min Rain = 0
KHA1 270115Z 14008KT 27/19 A2987 RMK A01 T02670186  RH  065%=      5-min Rain = 0
KHA1 270120Z 14009G15KT 27/19 A2987 RMK A01 T02670186  RH  065%=      5-min Rain = 0
KHA1 270125Z 14009KT 27/19 A2987 RMK A01 T02660186  RH  065%=      5-min Rain = 0
KHA1 270130Z 15009G14KT 27/19 A2987 RMK A01 T02660185  RH  065%=      5-min Rain = 0
KHA1 270135Z 14009G15KT 27/19 A2986 RMK A01 T02650185  RH  065%=      5-min Rain = 0
KHA1 270140Z 14010KT 26/19 A2986 RMK A01 T02640185  RH  065%=      5-min Rain = 0
KHA1 270145Z 14010KT 26/19 A2986 RMK A01 T02630185  RH  066%=      5-min Rain = 0
KHA1 270150Z 14009KT 26/19 A2986 RMK A01 T02620186  RH  066%=      5-min Rain = 0
KHA1 270155Z 13009KT 26/19 A2986 RMK A01 T02600186  RH  067%=      5-min Rain = 0
KHA1 270200Z 13009KT 26/19 A2986 RMK A01 T02590186  RH  068%=      5-min Rain = 0
KHA1 270205Z 13011G16KT 26/19 A2985 RMK A01 T02580186  RH  068%=      5-min Rain = 0
KHA1 270210Z 13013KT 26/19 A2984 RMK A01 T02580186  RH  068%=      5-min Rain = 0
KHA1 270215Z 13011KT 26/19 A2984 RMK A01 T02580185  RH  068%=      5-min Rain = 0
KHA1 270220Z 14010G16KT 26/19 A2983 RMK A01 T02570185  RH  068%=      5-min Rain = 0
KHA1 270225Z 13011G16KT 26/19 A2983 RMK A01 T02570185  RH  068%=      5-min Rain = 0
KHA1 270230Z 14012G17KT 26/19 A2983 RMK A01 T02560185  RH  068%=      5-min Rain = 0
KHA1 270235Z 14011G17KT 26/18 A2983 RMK A01 T02560184  RH  068%=      5-min Rain = 0
KHA1 270240Z 14013G18KT 26/18 A2983 RMK A01 T02560184  RH  068%=      5-min Rain = 0
KHA1 270245Z 14011KT 26/18 A2983 RMK A01 T02560183  RH  068%=      5-min Rain = 0
KHA1 270250Z 15012G20KT 26/18 A2983 RMK A01 T02560183  RH  067%=      5-min Rain = 0
KHA1 270255Z 15011G16KT 26/18 A2983 RMK A01 T02560183  RH  068%=      5-min Rain = 0
KHA1 270300Z 15012G18KT 26/18 A2983 RMK A01 T02560183  RH  067%=      5-min Rain = 0
KHA1 270305Z 15013KT 26/18 A2984 RMK A01 T02570182  RH  067%=      5-min Rain = 0
KHA1 270310Z 15012G18KT 26/18 A2984 RMK A01 T02580181  RH  066%=      5-min Rain = 0
KHA1 270315Z 15012G19KT 26/18 A2984 RMK A01 T02580181  RH  066%=      5-min Rain = 0
KHA1 270320Z 15012G19KT 26/18 A2984 RMK A01 T02570180  RH  066%=      5-min Rain = 0
KHA1 270325Z 15010G16KT 26/18 A2985 RMK A01 T02570180  RH  066%=      5-min Rain = 0
KHA1 270330Z 15012G18KT 26/18 A2985 RMK A01 T02570180  RH  066%=      5-min Rain = 0
KHA1 270335Z 15012G17KT 26/18 A2986 RMK A01 T02580179  RH  065%=      5-min Rain = 0
KHA1 270340Z 15013G20KT 26/18 A2986 RMK A01 T02580179  RH  065%=      5-min Rain = 0
KHA1 270345Z 15013KT 26/18 A2986 RMK A01 T02560179  RH  066%=      5-min Rain = 0
KHA1 270350Z 16012KT 26/18 A2986 RMK A01 T02560179  RH  066%=      5-min Rain = 0
KHA1 270355Z 15011G17KT 26/18 A2986 RMK A01 T02550179  RH  066%=      5-min Rain = 0
KHA1 270400Z 15012G17KT 26/18 A2986 RMK A01 T02550179  RH  066%=      5-min Rain = 0
KHA1 270405Z 16013G21KT 26/18 A2986 RMK A01 T02550179  RH  066%=      5-min Rain = 0
KHA1 270410Z 16012G17KT 25/18 A2986 RMK A01 T02530179  RH  067%=      5-min Rain = 0
KHA1 270415Z 16011G17KT 25/18 A2986 RMK A01 T02520179  RH  067%=      5-min Rain = 0
KHA1 270420Z 16012G18KT 25/18 A2986 RMK A01 T02510179  RH  067%=      5-min Rain = 0
KHA1 270425Z 15012G18KT 25/18 A2986 RMK A01 T02510179  RH  068%=      5-min Rain = 0
KHA1 270430Z 15011G16KT 25/18 A2985 RMK A01 T02490179  RH  068%=      5-min Rain = 0
KHA1 270435Z 15010G15KT 25/18 A2985 RMK A01 T02480179  RH  069%=      5-min Rain = 0
KHA1 270440Z 15011G18KT 25/18 A2985 RMK A01 T02480179  RH  069%=      5-min Rain = 0
KHA1 270445Z 15010G15KT 25/18 A2985 RMK A01 T02470178  RH  069%=      5-min Rain = 0
KHA1 270450Z 15010G15KT 25/18 A2985 RMK A01 T02470178  RH  069%=      5-min Rain = 0
KHA1 270455Z 16009KT 25/18 A2985 RMK A01 T02460178  RH  069%=      5-min Rain = 0

Page generated in 0.0091 seconds.